createdAt,value
2019-05-17T00:00:18.851Z,85.54
2019-05-17T00:02:47.464Z,85.52
2019-05-17T00:05:17.772Z,85.59
2019-05-17T00:07:47.478Z,86.18
2019-05-17T00:10:17.262Z,86.08
2019-05-17T00:12:47.146Z,85.81
2019-05-17T00:15:17.178Z,85.62
2019-05-17T00:17:46.967Z,85.83
2019-05-17T00:20:20.784Z,85.84
2019-05-17T00:22:49.329Z,85.89
2019-05-17T00:25:18.089Z,86.03
2019-05-17T00:27:47.437Z,85.91
2019-05-17T00:30:17.507Z,85.96
2019-05-17T00:32:47.600Z,86.05
2019-05-17T00:35:17.840Z,86.20
2019-05-17T00:37:46.681Z,86.11
2019-05-17T00:40:16.675Z,85.98
2019-05-17T00:42:46.587Z,86.11
2019-05-17T00:45:17.546Z,86.07
2019-05-17T00:47:46.858Z,86.16
2019-05-17T00:50:17.031Z,86.10
2019-05-17T00:52:47.482Z,86.05
2019-05-17T00:55:17.514Z,86.26
2019-05-17T00:57:47.464Z,86.33
2019-05-17T01:00:17.205Z,86.67
2019-05-17T01:02:46.794Z,86.30
2019-05-17T01:05:17.099Z,85.93
2019-05-17T01:07:47.057Z,85.72
2019-05-17T01:10:16.950Z,85.94
2019-05-17T01:12:45.473Z,86.08
2019-05-17T01:15:16.741Z,85.88
2019-05-17T01:17:47.334Z,86.20
2019-05-17T01:20:17.335Z,86.35
2019-05-17T01:22:47.509Z,86.59
2019-05-17T01:25:17.083Z,86.16
2019-05-17T01:27:47.470Z,86.45
2019-05-17T01:30:18.324Z,86.50
2019-05-17T01:32:46.995Z,86.63
2019-05-17T01:35:16.709Z,87.02
2019-05-17T01:37:47.427Z,86.78
2019-05-17T01:40:17.557Z,86.80
2019-05-17T01:42:46.798Z,86.75
2019-05-17T01:45:16.616Z,86.89
2019-05-17T01:47:47.436Z,86.75
2019-05-17T01:50:17.470Z,86.78
2019-05-17T01:52:46.495Z,86.60
2019-05-17T01:55:17.380Z,86.95
2019-05-17T01:57:47.648Z,87.18
2019-05-17T02:00:20.175Z,87.28
2019-05-17T02:02:50.518Z,87.15
2019-05-17T02:05:19.804Z,87.18
2019-05-17T02:07:48.589Z,87.03
2019-05-17T02:10:17.756Z,86.74
2019-05-17T02:12:49.059Z,87.13
2019-05-17T02:15:17.785Z,87.16
2019-05-17T02:17:46.972Z,87.13
2019-05-17T02:20:17.540Z,86.94
2019-05-17T02:22:47.345Z,87.02
2019-05-17T02:25:16.874Z,87.23
2019-05-17T02:27:45.767Z,87.01
2019-05-17T02:30:15.619Z,86.46
2019-05-17T02:32:45.694Z,87.04
2019-05-17T02:35:15.489Z,86.80
2019-05-17T02:37:44.271Z,86.64
2019-05-17T02:40:14.806Z,86.75
2019-05-17T02:42:44.171Z,86.68
2019-05-17T02:45:13.707Z,86.60
2019-05-17T02:47:43.794Z,86.85
2019-05-17T02:50:13.342Z,86.77
2019-05-17T02:52:43.621Z,86.91
2019-05-17T02:55:13.594Z,86.82
2019-05-17T02:57:43.542Z,86.96
2019-05-17T03:00:13.872Z,86.90
2019-05-17T03:02:43.902Z,86.64
2019-05-17T03:05:13.283Z,86.63
2019-05-17T03:07:43.788Z,86.50
2019-05-17T03:10:23.039Z,86.58
2019-05-17T03:12:44.385Z,86.73
2019-05-17T03:15:14.057Z,86.52
2019-05-17T03:17:43.711Z,86.57
2019-05-17T03:20:14.055Z,86.61
2019-05-17T03:22:43.971Z,86.25
2019-05-17T03:25:14.244Z,86.48
2019-05-17T03:27:43.608Z,86.36
2019-05-17T03:30:17.091Z,86.51
2019-05-17T03:32:47.509Z,86.48
2019-05-17T03:35:17.507Z,86.59
2019-05-17T03:37:45.502Z,86.88
2019-05-17T03:40:30.676Z,86.81
2019-05-17T03:42:48.631Z,86.98
2019-05-17T03:45:17.403Z,86.82
2019-05-17T03:47:46.108Z,86.76
2019-05-17T03:50:14.896Z,86.80
2019-05-17T03:52:44.748Z,86.50
2019-05-17T03:55:13.908Z,86.23
2019-05-17T03:57:44.119Z,86.26
2019-05-17T04:00:14.128Z,86.75
2019-05-17T04:02:44.578Z,86.66
2019-05-17T04:05:13.572Z,86.61
2019-05-17T04:07:43.599Z,86.63
2019-05-17T04:10:15.183Z,86.73
2019-05-17T04:12:44.520Z,86.84
2019-05-17T04:15:14.968Z,86.60
2019-05-17T04:17:44.330Z,86.62
2019-05-17T04:20:14.015Z,86.72
2019-05-17T04:22:44.318Z,86.64
2019-05-17T04:25:14.342Z,86.71
2019-05-17T04:27:43.828Z,86.58
2019-05-17T04:30:13.072Z,86.56
2019-05-17T04:32:44.325Z,86.43
2019-05-17T04:35:13.489Z,86.50
2019-05-17T04:37:44.450Z,86.55
2019-05-17T04:40:14.398Z,86.80
2019-05-17T04:42:44.236Z,86.91
2019-05-17T04:45:13.758Z,86.86
2019-05-17T04:47:44.311Z,86.72
2019-05-17T04:50:14.060Z,86.70
2019-05-17T04:52:43.615Z,86.77
2019-05-17T04:55:13.844Z,87.05
2019-05-17T04:57:43.707Z,87.16
2019-05-17T05:00:13.829Z,87.06
2019-05-17T05:02:43.930Z,86.77
2019-05-17T05:05:15.329Z,86.54
2019-05-17T05:07:44.134Z,86.88
2019-05-17T05:10:13.999Z,87.01
2019-05-17T05:12:44.138Z,86.85
2019-05-17T05:15:13.933Z,87.16
2019-05-17T05:17:43.104Z,87.03
2019-05-17T05:20:13.312Z,86.82
2019-05-17T05:22:43.119Z,87.01
2019-05-17T05:25:13.168Z,86.81
2019-05-17T05:27:42.627Z,86.76
2019-05-17T05:30:12.740Z,86.66
2019-05-17T05:32:42.777Z,86.77
2019-05-17T05:35:12.728Z,86.71
2019-05-17T05:37:42.236Z,87.09
2019-05-17T05:40:12.671Z,87.08
2019-05-17T05:42:42.615Z,86.99
2019-05-17T05:45:12.305Z,86.91
2019-05-17T05:47:42.114Z,86.46
2019-05-17T05:50:12.683Z,86.36
2019-05-17T05:52:42.583Z,86.26
2019-05-17T05:55:12.468Z,86.13
2019-05-17T05:57:42.161Z,85.85
2019-05-17T06:00:13.125Z,85.63
2019-05-17T06:02:42.211Z,85.86
2019-05-17T06:05:14.841Z,86.01
2019-05-17T06:07:41.926Z,85.52
2019-05-17T06:10:12.975Z,85.46
2019-05-17T06:12:43.514Z,85.68
2019-05-17T06:15:12.968Z,85.17
2019-05-17T06:17:42.893Z,85.41
2019-05-17T06:20:12.647Z,85.22
2019-05-17T06:22:43.063Z,85.34
2019-05-17T06:25:15.212Z,85.03
2019-05-17T06:27:43.004Z,84.68
2019-05-17T06:30:12.830Z,84.33
2019-05-17T06:32:43.631Z,84.09
2019-05-17T06:35:13.646Z,83.72
2019-05-17T06:37:42.718Z,83.47
2019-05-17T06:40:13.007Z,83.59
2019-05-17T06:42:45.288Z,84.07
2019-05-17T06:45:14.118Z,83.88
2019-05-17T06:47:43.011Z,83.15
2019-05-17T06:50:14.340Z,83.09
2019-05-17T06:52:43.968Z,82.37
2019-05-17T06:55:13.257Z,82.14
2019-05-17T06:57:43.255Z,82.22
2019-05-17T07:00:20.805Z,82.46
2019-05-17T07:02:45.187Z,81.80
2019-05-17T07:05:15.546Z,81.14
2019-05-17T07:07:44.234Z,80.05
2019-05-17T07:10:13.639Z,80.64
2019-05-17T07:12:55.095Z,80.07
2019-05-17T07:15:13.591Z,78.36
2019-05-17T07:17:42.272Z,78.27
2019-05-17T07:20:11.374Z,77.85
2019-05-17T07:22:41.007Z,77.24
2019-05-17T07:25:10.973Z,76.90
2019-05-17T07:27:45.453Z,76.75
2019-05-17T07:30:11.081Z,76.60
2019-05-17T07:32:40.563Z,76.13
2019-05-17T07:35:10.746Z,75.13
2019-05-17T07:37:40.159Z,75.93
2019-05-17T07:40:10.836Z,75.97
2019-05-17T07:42:42.062Z,76.55
2019-05-17T07:45:11.193Z,76.32
2019-05-17T07:47:40.697Z,77.01
2019-05-17T07:50:11.425Z,77.38
2019-05-17T07:52:40.410Z,77.29
2019-05-17T07:55:10.784Z,77.75
2019-05-17T07:57:40.976Z,78.09
2019-05-17T08:00:10.943Z,78.55
2019-05-17T08:02:40.367Z,77.97
2019-05-17T08:05:10.620Z,77.78
2019-05-17T08:07:40.539Z,77.13
2019-05-17T08:10:11.274Z,77.00
2019-05-17T08:12:40.927Z,76.44
2019-05-17T08:15:10.954Z,76.56
2019-05-17T08:17:40.081Z,75.30
2019-05-17T08:20:10.538Z,75.81
2019-05-17T08:22:40.110Z,74.59
2019-05-17T08:25:10.896Z,74.34
2019-05-17T08:27:40.605Z,74.72
2019-05-17T08:30:10.844Z,74.65
2019-05-17T08:32:40.295Z,73.91
2019-05-17T08:35:11.176Z,75.42
2019-05-17T08:37:42.362Z,76.24
2019-05-17T08:40:14.874Z,76.07
2019-05-17T08:42:41.783Z,75.75
2019-05-17T08:45:10.967Z,75.62
2019-05-17T08:47:39.995Z,74.61
2019-05-17T08:50:11.211Z,75.48
2019-05-17T08:52:40.318Z,74.71
2019-05-17T08:55:09.962Z,73.27
2019-05-17T08:57:40.137Z,73.38
2019-05-17T09:00:10.567Z,71.62
2019-05-17T09:02:40.830Z,71.60
2019-05-17T09:05:10.295Z,70.47
2019-05-17T09:07:40.170Z,70.43
2019-05-17T09:10:10.122Z,70.31
2019-05-17T09:12:41.040Z,70.70
2019-05-17T09:15:10.248Z,69.88
2019-05-17T09:17:39.592Z,69.19
2019-05-17T09:20:10.883Z,64.77
2019-05-17T09:22:39.971Z,60.56
2019-05-17T09:25:13.506Z,55.97
2019-05-17T09:27:39.928Z,55.21
2019-05-17T09:30:09.658Z,49.38
2019-05-17T09:32:40.531Z,51.19
2019-05-17T09:35:10.338Z,49.92
2019-05-17T09:37:41.400Z,48.71
2019-05-17T09:40:10.839Z,49.80
2019-05-17T09:42:41.124Z,48.80
2019-05-17T09:45:10.837Z,48.33
2019-05-17T09:47:39.966Z,50.91
2019-05-17T09:50:09.884Z,48.40
2019-05-17T09:52:40.512Z,46.13
2019-05-17T09:55:10.104Z,46.50
2019-05-17T09:57:40.912Z,44.89
2019-05-17T10:00:10.737Z,44.67
2019-05-17T10:02:40.419Z,41.39
2019-05-17T10:05:10.608Z,39.67
2019-05-17T10:07:40.507Z,38.65
2019-05-17T10:10:10.402Z,37.53
2019-05-17T10:12:40.282Z,38.29
2019-05-17T10:15:10.198Z,38.58
2019-05-17T10:17:38.958Z,39.12
2019-05-17T10:20:10.670Z,39.54
2019-05-17T10:22:40.242Z,38.32
2019-05-17T10:25:11.029Z,39.83
2019-05-17T10:27:40.765Z,40.90
2019-05-17T10:30:10.675Z,39.78
2019-05-17T10:32:40.864Z,38.86
2019-05-17T10:35:09.999Z,37.68
2019-05-17T10:37:40.642Z,34.83
2019-05-17T10:40:10.939Z,36.35
2019-05-17T10:42:40.057Z,36.32
2019-05-17T10:45:10.906Z,40.16
2019-05-17T10:47:40.113Z,40.50
2019-05-17T10:50:10.916Z,40.95
2019-05-17T10:52:40.881Z,40.34
2019-05-17T10:55:10.803Z,39.81
2019-05-17T10:57:39.616Z,37.29
2019-05-17T11:00:10.088Z,35.24
2019-05-17T11:02:39.078Z,35.59
2019-05-17T11:05:10.372Z,34.62
2019-05-17T11:07:38.718Z,35.35
2019-05-17T11:10:11.148Z,36.88
2019-05-17T11:12:38.615Z,39.70
2019-05-17T11:15:11.398Z,41.66
2019-05-17T11:17:38.368Z,41.87
2019-05-17T11:20:09.078Z,44.02
2019-05-17T11:22:37.878Z,43.19
2019-05-17T11:25:07.886Z,44.24
2019-05-17T11:27:36.650Z,43.13
2019-05-17T11:30:07.183Z,42.29
2019-05-17T11:32:35.936Z,38.88
2019-05-17T11:35:05.578Z,40.71
2019-05-17T11:37:36.314Z,36.18
2019-05-17T11:40:08.275Z,38.94
2019-05-17T11:42:37.122Z,36.17
2019-05-17T11:45:06.229Z,35.32
2019-05-17T11:47:34.894Z,36.06
2019-05-17T11:50:04.641Z,35.86
2019-05-17T11:52:33.370Z,38.34
2019-05-17T11:55:02.193Z,38.90
2019-05-17T11:57:30.888Z,36.61
2019-05-17T11:59:59.550Z,36.22
2019-05-17T12:02:28.238Z,38.84
2019-05-17T12:04:56.989Z,39.74
2019-05-17T12:07:25.637Z,41.56
2019-05-17T12:09:54.325Z,41.24
2019-05-17T12:12:23.103Z,42.69
2019-05-17T12:14:51.763Z,42.25
2019-05-17T12:17:20.535Z,42.15
2019-05-17T12:19:49.306Z,43.70
2019-05-17T12:22:17.989Z,43.75
2019-05-17T12:24:46.743Z,43.61
2019-05-17T12:27:15.451Z,43.90
2019-05-17T12:29:44.194Z,44.21
2019-05-17T12:32:16.905Z,41.93
2019-05-17T12:34:43.476Z,41.64
2019-05-17T12:37:12.148Z,40.99
2019-05-17T12:39:40.825Z,42.53
2019-05-17T12:42:09.605Z,43.28
2019-05-17T12:44:38.344Z,44.48
2019-05-17T12:47:07.041Z,44.11
2019-05-17T12:49:35.698Z,44.77
2019-05-17T12:52:04.464Z,44.45
2019-05-17T12:54:33.193Z,44.87
2019-05-17T12:57:04.561Z,43.79
2019-05-17T12:59:32.346Z,43.61
2019-05-17T13:02:01.049Z,44.79
2019-05-17T13:04:29.790Z,45.39
2019-05-17T13:06:58.527Z,46.07
2019-05-17T13:09:27.238Z,45.18
2019-05-17T13:11:55.901Z,45.66
2019-05-17T13:14:24.652Z,47.00
2019-05-17T13:16:53.422Z,48.30
2019-05-17T13:19:25.120Z,48.82
2019-05-17T13:21:52.512Z,48.84
2019-05-17T13:24:21.237Z,47.36
2019-05-17T13:26:49.903Z,46.12
2019-05-17T13:29:18.674Z,47.51
2019-05-17T13:31:47.482Z,47.37
2019-05-17T13:34:16.234Z,47.12
2019-05-17T13:36:44.895Z,46.89
2019-05-17T13:39:13.614Z,48.26
2019-05-17T13:41:42.473Z,48.86
2019-05-17T13:44:11.147Z,48.56
2019-05-17T13:46:39.966Z,47.18
2019-05-17T13:49:08.700Z,47.72
2019-05-17T13:51:37.463Z,47.97
2019-05-17T13:54:06.198Z,49.74
2019-05-17T13:56:35.028Z,48.90
2019-05-17T13:59:05.164Z,49.51
2019-05-17T14:01:34.066Z,50.64
2019-05-17T14:04:02.800Z,50.84
2019-05-17T14:06:31.542Z,49.38
2019-05-17T14:09:00.293Z,49.24
2019-05-17T14:11:29.004Z,50.12
2019-05-17T14:13:57.872Z,47.99
2019-05-17T14:16:26.666Z,47.68
2019-05-17T14:18:55.408Z,48.82
2019-05-17T14:21:24.068Z,50.39
2019-05-17T14:23:52.791Z,49.97
2019-05-17T14:26:21.468Z,48.60
2019-05-17T14:28:50.129Z,50.11
2019-05-17T14:31:19.023Z,48.19
2019-05-17T14:33:47.689Z,47.14
2019-05-17T14:36:16.347Z,47.72
2019-05-17T14:38:45.139Z,47.49
2019-05-17T14:41:14.179Z,48.04
2019-05-17T14:43:42.953Z,49.01
2019-05-17T14:46:13.710Z,47.50
2019-05-17T14:48:42.440Z,47.55
2019-05-17T14:51:11.168Z,47.50
2019-05-17T14:53:39.839Z,45.15
2019-05-17T14:56:08.573Z,45.57
2019-05-17T14:58:37.303Z,47.04
2019-05-17T15:01:06.012Z,46.43
2019-05-17T15:03:34.775Z,47.42
2019-05-17T15:06:03.473Z,46.24
2019-05-17T15:08:32.173Z,46.57
2019-05-17T15:11:00.864Z,46.19
2019-05-17T15:13:29.537Z,47.36
2019-05-17T15:15:58.243Z,46.63
2019-05-17T15:18:27.004Z,46.93
2019-05-17T15:20:55.695Z,44.87
2019-05-17T15:23:24.481Z,46.11
2019-05-17T15:25:53.157Z,49.16
2019-05-17T15:28:21.907Z,47.49
2019-05-17T15:30:50.601Z,47.71
2019-05-17T15:33:19.346Z,48.37
2019-05-17T15:35:48.086Z,46.73
2019-05-17T15:38:16.784Z,46.33
2019-05-17T15:40:45.441Z,45.93
2019-05-17T15:43:14.133Z,46.14
2019-05-17T15:45:42.972Z,46.79
2019-05-17T15:48:11.799Z,48.01
2019-05-17T15:50:40.630Z,47.05
2019-05-17T15:53:09.381Z,47.59
2019-05-17T15:55:38.152Z,48.63
2019-05-17T15:58:06.886Z,46.76
2019-05-17T16:00:35.654Z,48.61
2019-05-17T16:03:04.329Z,47.59
2019-05-17T16:05:33.020Z,48.42
2019-05-17T16:08:01.722Z,47.93
2019-05-17T16:10:30.461Z,48.83
2019-05-17T16:13:02.799Z,48.78
2019-05-17T16:15:29.764Z,48.94
2019-05-17T16:17:58.465Z,48.34
2019-05-17T16:20:27.225Z,48.34
2019-05-17T16:22:55.969Z,48.58
2019-05-17T16:25:24.794Z,49.95
2019-05-17T16:27:53.527Z,51.14
2019-05-17T16:30:22.341Z,48.73
2019-05-17T16:32:51.018Z,50.48
2019-05-17T16:35:19.831Z,48.62
2019-05-17T16:37:48.554Z,48.62
2019-05-17T16:40:17.347Z,49.60
2019-05-17T16:42:46.082Z,49.60
2019-05-17T16:45:17.883Z,49.70
2019-05-17T16:47:46.635Z,51.04
2019-05-17T16:50:17.069Z,51.00
2019-05-17T16:52:45.732Z,49.24
2019-05-17T16:55:15.162Z,50.49
2019-05-17T16:57:43.925Z,50.49
2019-05-17T17:00:30.320Z,50.16
2019-05-17T17:03:00.540Z,50.59
2019-05-17T17:05:29.344Z,50.55
2019-05-17T17:07:58.099Z,50.55
2019-05-17T17:10:26.817Z,51.18
2019-05-17T17:12:55.497Z,51.13
2019-05-17T17:15:24.188Z,50.61
2019-05-17T17:17:52.972Z,50.21
2019-05-17T17:20:21.877Z,50.79
2019-05-17T17:22:50.557Z,50.79
2019-05-17T17:25:19.463Z,49.68
2019-05-17T17:27:48.165Z,49.25
2019-05-17T17:30:17.546Z,50.03
2019-05-17T17:32:46.275Z,50.60
2019-05-17T17:35:16.067Z,50.81
2019-05-17T17:37:44.821Z,50.94
2019-05-17T17:40:15.293Z,50.98
2019-05-17T17:42:44.046Z,54.07
2019-05-17T17:45:17.758Z,58.75
2019-05-17T17:47:46.559Z,61.15
2019-05-17T17:50:15.978Z,62.14
2019-05-17T17:52:46.948Z,63.00
2019-05-17T17:55:15.775Z,64.17
2019-05-17T17:57:44.477Z,64.65
2019-05-17T18:00:14.252Z,64.84
2019-05-17T18:02:42.917Z,65.44
2019-05-17T18:05:12.163Z,65.72
2019-05-17T18:07:40.838Z,65.80
2019-05-17T18:10:10.352Z,66.50
2019-05-17T18:12:39.008Z,66.02
2019-05-17T18:15:09.959Z,66.66
2019-05-17T18:17:39.621Z,66.65
2019-05-17T18:20:08.688Z,66.94
2019-05-17T18:22:37.429Z,66.70
2019-05-17T18:25:06.930Z,66.73
2019-05-17T18:27:35.665Z,66.47
2019-05-17T18:30:06.958Z,66.55
2019-05-17T18:32:35.667Z,66.88
2019-05-17T18:35:05.984Z,68.13
2019-05-17T18:37:34.752Z,68.08
2019-05-17T18:40:03.852Z,68.98
2019-05-17T18:42:32.545Z,69.27
2019-05-17T18:45:01.282Z,68.64
2019-05-17T18:47:30.017Z,69.36
2019-05-17T18:49:58.697Z,69.23
2019-05-17T18:52:27.443Z,68.72
2019-05-17T18:54:56.163Z,68.54
2019-05-17T18:57:24.903Z,68.81
2019-05-17T18:59:53.655Z,68.44
2019-05-17T19:02:22.372Z,68.95
2019-05-17T19:04:51.131Z,69.22
2019-05-17T19:07:19.901Z,69.61
2019-05-17T19:09:48.620Z,70.60
2019-05-17T19:12:17.293Z,70.21
2019-05-17T19:14:46.052Z,71.01
2019-05-17T19:17:14.802Z,69.99
2019-05-17T19:19:43.540Z,69.88
2019-05-17T19:22:12.289Z,70.58
2019-05-17T19:24:41.065Z,70.82
2019-05-17T19:27:09.843Z,71.07
2019-05-17T19:29:38.590Z,71.69
2019-05-17T19:32:07.298Z,71.77
2019-05-17T19:34:36.061Z,73.48
2019-05-17T19:37:04.793Z,72.82
2019-05-17T19:39:33.517Z,72.45
2019-05-17T19:42:02.216Z,72.28
2019-05-17T19:44:30.961Z,72.92
2019-05-17T19:46:59.741Z,72.36
2019-05-17T19:49:28.491Z,73.06
2019-05-17T19:51:57.266Z,73.27
2019-05-17T19:54:25.958Z,72.92
2019-05-17T19:56:54.854Z,72.82
2019-05-17T19:59:23.530Z,72.79
2019-05-17T20:01:52.252Z,73.57
2019-05-17T20:04:21.010Z,73.58
2019-05-17T20:06:49.692Z,73.71
2019-05-17T20:09:18.368Z,73.56
2019-05-17T20:11:47.073Z,73.81
2019-05-17T20:14:15.816Z,73.85
2019-05-17T20:16:44.523Z,74.07
2019-05-17T20:19:13.249Z,74.64
2019-05-17T20:21:41.973Z,74.83
2019-05-17T20:24:13.350Z,74.44
2019-05-17T20:26:42.042Z,74.85
2019-05-17T20:29:11.215Z,74.31
2019-05-17T20:31:39.960Z,75.18
2019-05-17T20:34:08.762Z,75.28
2019-05-17T20:36:37.420Z,74.56
2019-05-17T20:39:06.298Z,75.64
2019-05-17T20:41:34.965Z,75.88
2019-05-17T20:44:03.823Z,76.07
2019-05-17T20:46:32.638Z,75.65
2019-05-17T20:49:01.564Z,75.62
2019-05-17T20:51:30.339Z,75.76
2019-05-17T20:54:05.579Z,76.61
2019-05-17T20:56:34.386Z,76.20
2019-05-17T20:59:03.160Z,75.46
2019-05-17T21:01:31.983Z,75.59
2019-05-17T21:04:00.768Z,75.53
2019-05-17T21:06:29.437Z,75.44
2019-05-17T21:08:58.147Z,76.00
2019-05-17T21:11:26.851Z,76.33
2019-05-17T21:13:55.630Z,76.07
2019-05-17T21:16:24.442Z,76.12
2019-05-17T21:18:53.151Z,77.02
2019-05-17T21:21:21.828Z,76.68
2019-05-17T21:23:50.560Z,77.12
2019-05-17T21:26:19.260Z,76.90
2019-05-17T21:28:47.968Z,76.33
2019-05-17T21:31:16.713Z,76.61
2019-05-17T21:33:45.430Z,77.55
2019-05-17T21:36:14.176Z,77.72
2019-05-17T21:38:42.900Z,77.51
2019-05-17T21:41:11.578Z,77.42
2019-05-17T21:43:40.266Z,77.73
2019-05-17T21:46:09.072Z,77.27
2019-05-17T21:48:37.749Z,77.05
2019-05-17T21:51:06.473Z,76.96
2019-05-17T21:53:35.157Z,78.25
2019-05-17T21:56:03.831Z,78.57
2019-05-17T21:58:32.729Z,78.09
2019-05-17T22:01:04.492Z,77.54
2019-05-17T22:03:33.247Z,77.90
2019-05-17T22:06:02.044Z,78.27
2019-05-17T22:08:30.809Z,78.54
2019-05-17T22:10:59.496Z,79.51
2019-05-17T22:13:28.290Z,78.93
2019-05-17T22:15:57.033Z,78.83
2019-05-17T22:18:25.702Z,78.63
2019-05-17T22:20:54.395Z,79.53
2019-05-17T22:23:23.116Z,79.82
2019-05-17T22:25:51.797Z,79.41
2019-05-17T22:28:20.472Z,79.55
2019-05-17T22:30:49.186Z,80.09
2019-05-17T22:33:17.873Z,79.57
2019-05-17T22:35:46.608Z,79.10
2019-05-17T22:38:15.336Z,79.53
2019-05-17T22:40:44.115Z,79.46
2019-05-17T22:43:12.803Z,79.79
2019-05-17T22:45:41.822Z,79.12
2019-05-17T22:48:10.623Z,78.98
2019-05-17T22:50:39.402Z,79.13
2019-05-17T22:53:08.120Z,78.34
2019-05-17T22:55:36.805Z,78.90
2019-05-17T22:58:05.487Z,78.76
2019-05-17T23:00:34.553Z,78.82
2019-05-17T23:03:03.259Z,78.89
2019-05-17T23:05:31.945Z,78.72
2019-05-17T23:08:00.667Z,79.12
2019-05-17T23:10:29.375Z,79.13
2019-05-17T23:12:58.119Z,79.72
2019-05-17T23:15:28.479Z,79.69
2019-05-17T23:17:57.243Z,79.79
2019-05-17T23:20:25.903Z,79.95
2019-05-17T23:22:54.837Z,79.79
2019-05-17T23:25:23.609Z,78.89
2019-05-17T23:27:52.421Z,78.60
2019-05-17T23:30:21.257Z,79.37
2019-05-17T23:32:50.012Z,79.00
2019-05-17T23:35:18.806Z,79.78
2019-05-17T23:37:47.626Z,80.25
2019-05-17T23:40:16.499Z,79.75
2019-05-17T23:42:45.244Z,80.70
2019-05-17T23:45:14.056Z,80.59
2019-05-17T23:47:42.736Z,80.41
2019-05-17T23:50:11.855Z,79.98
2019-05-17T23:52:40.617Z,80.13
2019-05-17T23:55:10.281Z,80.30
2019-05-17T23:57:39.092Z,80.51
